createdAt,value
2017-08-24T00:01:07.432Z,9.30
2017-08-24T00:03:34.883Z,10.23
2017-08-24T00:06:02.362Z,10.60
2017-08-24T00:08:29.820Z,11.07
2017-08-24T00:10:57.285Z,10.93
2017-08-24T00:13:24.762Z,12.00
2017-08-24T00:15:52.226Z,9.00
2017-08-24T00:18:19.681Z,11.63
2017-08-24T00:20:47.162Z,9.17
2017-08-24T00:23:14.609Z,8.63
2017-08-24T00:25:42.266Z,10.43
2017-08-24T00:28:09.745Z,10.57
2017-08-24T00:30:37.215Z,9.13
2017-08-24T00:33:04.672Z,9.23
2017-08-24T00:35:32.145Z,9.90
2017-08-24T00:37:59.618Z,10.60
2017-08-24T00:40:27.064Z,9.70
2017-08-24T00:42:54.513Z,11.33
2017-08-24T00:45:22.071Z,10.87
2017-08-24T00:47:49.537Z,11.10
2017-08-24T00:50:17.020Z,11.47
2017-08-24T00:52:44.473Z,10.90
2017-08-24T00:55:11.925Z,10.90
2017-08-24T00:57:39.405Z,11.97
2017-08-24T01:00:06.893Z,11.67
2017-08-24T01:02:34.344Z,11.30
2017-08-24T01:05:01.793Z,11.53
2017-08-24T01:07:29.265Z,11.13
2017-08-24T01:09:56.717Z,11.70
2017-08-24T01:12:24.206Z,11.27
2017-08-24T01:14:52.021Z,11.33
2017-08-24T01:17:19.474Z,10.70
2017-08-24T01:19:46.926Z,10.40
2017-08-24T01:22:14.393Z,13.03
2017-08-24T01:24:41.843Z,12.97
2017-08-24T01:27:09.329Z,12.57
2017-08-24T01:29:36.801Z,12.73
2017-08-24T01:32:04.261Z,12.50
2017-08-24T01:34:31.737Z,13.47
2017-08-24T01:36:59.198Z,13.90
2017-08-24T01:39:26.677Z,13.13
2017-08-24T01:41:54.136Z,12.57
2017-08-24T01:44:21.610Z,12.13
2017-08-24T01:46:56.924Z,13.33
2017-08-24T01:49:24.401Z,12.30
2017-08-24T01:51:51.874Z,13.00
2017-08-24T01:54:19.362Z,13.60
2017-08-24T01:56:46.818Z,11.93
2017-08-24T01:59:14.274Z,11.87
2017-08-24T02:01:41.885Z,13.20
2017-08-24T02:04:09.340Z,12.20
2017-08-24T02:06:36.789Z,11.37
2017-08-24T02:09:04.271Z,11.80
2017-08-24T02:11:31.721Z,12.97
2017-08-24T02:13:59.205Z,11.83
2017-08-24T02:16:26.665Z,14.63
2017-08-24T02:18:54.137Z,13.27
2017-08-24T02:21:21.597Z,13.00
2017-08-24T02:23:49.049Z,13.03
2017-08-24T02:26:16.525Z,12.17
2017-08-24T02:28:43.977Z,14.20
2017-08-24T02:31:11.574Z,12.50
2017-08-24T02:33:39.031Z,12.17
2017-08-24T02:36:06.486Z,13.63
2017-08-24T02:38:34.261Z,13.07
2017-08-24T02:41:01.709Z,13.23
2017-08-24T02:43:29.165Z,15.33
2017-08-24T02:45:56.656Z,14.53
2017-08-24T02:48:24.117Z,14.10
2017-08-24T02:50:51.734Z,12.40
2017-08-24T02:53:19.192Z,13.40
2017-08-24T02:55:46.648Z,13.17
2017-08-24T02:58:14.133Z,14.37
2017-08-24T03:00:41.585Z,13.70
2017-08-24T03:03:09.069Z,13.20
2017-08-24T03:05:36.521Z,12.03
2017-08-24T03:08:03.976Z,10.93
2017-08-24T03:10:31.445Z,9.47
2017-08-24T03:12:58.902Z,10.20
2017-08-24T03:15:26.377Z,11.00
2017-08-24T03:17:54.738Z,10.17
2017-08-24T03:20:22.193Z,10.13
2017-08-24T03:22:49.683Z,11.30
2017-08-24T03:25:17.138Z,10.90
2017-08-24T03:27:44.595Z,9.67
2017-08-24T03:30:12.078Z,10.53
2017-08-24T03:32:39.523Z,8.37
2017-08-24T03:35:06.982Z,10.60
2017-08-24T03:37:34.457Z,10.17
2017-08-24T03:40:01.919Z,10.27
2017-08-24T03:42:29.401Z,9.50
2017-08-24T03:44:56.859Z,11.00
2017-08-24T03:47:24.322Z,10.60
2017-08-24T03:49:51.796Z,10.97
2017-08-24T03:52:19.248Z,10.27
2017-08-24T03:54:46.706Z,11.30
2017-08-24T03:57:14.200Z,10.57
2017-08-24T03:59:41.660Z,10.03
2017-08-24T04:02:09.114Z,12.27
2017-08-24T04:04:36.585Z,10.27
2017-08-24T04:07:04.064Z,11.97
2017-08-24T04:09:31.525Z,11.90
2017-08-24T04:11:59.022Z,12.30
2017-08-24T04:14:26.718Z,10.60
2017-08-24T04:16:54.174Z,11.37
2017-08-24T04:19:21.758Z,11.40
2017-08-24T04:21:49.227Z,11.20
2017-08-24T04:24:16.717Z,10.00
2017-08-24T04:26:44.172Z,11.30
2017-08-24T04:29:11.657Z,11.00
2017-08-24T04:31:39.106Z,10.43
2017-08-24T04:34:06.594Z,11.13
2017-08-24T04:36:34.043Z,9.00
2017-08-24T04:39:01.492Z,9.73
2017-08-24T04:41:28.966Z,10.53
2017-08-24T04:43:56.420Z,10.00
2017-08-24T04:46:23.897Z,9.17
2017-08-24T04:48:51.362Z,10.67
2017-08-24T04:51:18.838Z,11.17
2017-08-24T04:53:46.319Z,10.30
2017-08-24T04:56:13.769Z,10.40
2017-08-24T04:58:41.249Z,9.70
2017-08-24T05:01:08.701Z,10.70
2017-08-24T05:03:36.152Z,10.90
2017-08-24T05:06:03.638Z,11.20
2017-08-24T05:08:31.092Z,20.03
2017-08-24T05:10:58.569Z,27.37
2017-08-24T05:13:26.029Z,40.03
2017-08-24T05:15:53.503Z,12.37
2017-08-24T05:18:20.970Z,9.87
2017-08-24T05:20:48.425Z,11.23
2017-08-24T05:23:15.906Z,10.33
2017-08-24T05:25:43.356Z,12.13
2017-08-24T05:28:10.830Z,11.03
2017-08-24T05:30:38.285Z,11.90
2017-08-24T05:33:05.776Z,10.03
2017-08-24T05:35:33.239Z,10.13
2017-08-24T05:38:00.689Z,10.03
2017-08-24T05:40:28.173Z,11.33
2017-08-24T05:42:55.628Z,10.57
2017-08-24T05:45:23.084Z,10.47
2017-08-24T05:47:50.560Z,12.73
2017-08-24T05:50:18.014Z,10.70
2017-08-24T05:52:45.492Z,98.43
2017-08-24T05:55:12.956Z,41.20
2017-08-24T05:57:40.429Z,15.50
2017-08-24T06:00:07.908Z,12.30
2017-08-24T06:02:35.398Z,12.67
2017-08-24T06:05:02.857Z,13.10
2017-08-24T06:07:30.313Z,11.63
2017-08-24T06:09:57.789Z,12.87
2017-08-24T06:12:25.245Z,11.87
2017-08-24T06:14:52.696Z,12.50
2017-08-24T06:17:20.340Z,12.20
2017-08-24T06:19:47.794Z,12.97
2017-08-24T06:22:15.245Z,13.33
2017-08-24T06:24:42.716Z,14.13
2017-08-24T06:27:10.194Z,12.90
2017-08-24T06:29:37.673Z,12.53
2017-08-24T06:32:05.132Z,13.40
2017-08-24T06:34:32.585Z,14.63
2017-08-24T06:37:00.052Z,16.37
2017-08-24T06:39:27.533Z,13.73
2017-08-24T06:41:54.998Z,16.33
2017-08-24T06:44:22.457Z,13.37
2017-08-24T06:46:49.933Z,14.50
2017-08-24T06:49:17.382Z,15.70
2017-08-24T06:51:44.861Z,14.40
2017-08-24T06:54:12.552Z,16.20
2017-08-24T06:56:40.013Z,14.63
2017-08-24T06:59:07.474Z,14.27
2017-08-24T07:01:34.958Z,14.07
2017-08-24T07:04:02.416Z,13.00
2017-08-24T07:06:29.872Z,19.33
2017-08-24T07:08:57.346Z,12.67
2017-08-24T07:11:24.821Z,13.60
2017-08-24T07:13:52.280Z,12.70
2017-08-24T07:16:19.775Z,11.40
2017-08-24T07:18:47.260Z,11.80
2017-08-24T07:21:14.709Z,10.40
2017-08-24T07:23:42.164Z,11.10
2017-08-24T07:26:09.648Z,10.37
2017-08-24T07:28:37.102Z,10.40
2017-08-24T07:31:04.602Z,10.27
2017-08-24T07:33:32.062Z,10.50
2017-08-24T07:35:59.523Z,11.10
2017-08-24T07:38:26.992Z,10.93
2017-08-24T07:40:54.453Z,10.77
2017-08-24T07:43:21.893Z,9.60
2017-08-24T07:45:49.370Z,11.53
2017-08-24T07:48:16.835Z,13.63
2017-08-24T07:50:44.314Z,13.50
2017-08-24T07:53:11.772Z,13.60
2017-08-24T07:55:39.241Z,11.90
2017-08-24T07:58:06.714Z,10.67
2017-08-24T08:00:34.223Z,9.97
2017-08-24T08:03:01.674Z,11.20
2017-08-24T08:05:29.148Z,9.50
2017-08-24T08:07:56.603Z,10.00
2017-08-24T08:10:24.065Z,8.33
2017-08-24T08:12:51.513Z,9.07
2017-08-24T08:15:19.269Z,10.70
2017-08-24T08:17:46.740Z,9.03
2017-08-24T08:20:14.217Z,9.10
2017-08-24T08:22:41.669Z,9.23
2017-08-24T08:25:09.142Z,9.07
2017-08-24T08:27:36.589Z,7.47
2017-08-24T08:30:04.090Z,8.70
2017-08-24T08:32:31.561Z,8.27
2017-08-24T08:34:59.030Z,6.97
2017-08-24T08:37:26.797Z,6.87
2017-08-24T08:39:54.237Z,7.70
2017-08-24T08:42:21.682Z,8.30
2017-08-24T08:44:49.175Z,7.87
2017-08-24T08:47:16.610Z,8.17
2017-08-24T08:49:44.084Z,8.03
2017-08-24T08:52:11.524Z,9.50
2017-08-24T08:54:39.002Z,7.83
2017-08-24T08:57:06.449Z,8.87
2017-08-24T08:59:33.913Z,9.93
2017-08-24T09:02:01.379Z,7.40
2017-08-24T09:04:29.144Z,7.20
2017-08-24T09:06:56.593Z,7.20
2017-08-24T09:09:24.053Z,6.00
2017-08-24T09:11:51.517Z,6.80
2017-08-24T09:14:18.971Z,6.07
2017-08-24T09:16:46.439Z,6.47
2017-08-24T09:19:13.909Z,6.87
2017-08-24T09:21:41.381Z,7.20
2017-08-24T09:24:08.853Z,8.23
2017-08-24T09:26:36.334Z,6.17
2017-08-24T09:29:03.811Z,6.90
2017-08-24T09:31:31.252Z,7.73
2017-08-24T09:33:58.700Z,6.20
2017-08-24T09:36:26.158Z,5.93
2017-08-24T09:38:53.601Z,8.93
2017-08-24T09:41:21.064Z,5.90
2017-08-24T09:43:48.519Z,6.70
2017-08-24T09:46:15.974Z,5.23
2017-08-24T09:48:43.444Z,6.30
2017-08-24T09:51:10.921Z,6.13
2017-08-24T09:53:38.401Z,6.80
2017-08-24T09:56:05.865Z,6.90
2017-08-24T09:58:33.331Z,5.53
2017-08-24T10:01:00.778Z,6.50
2017-08-24T10:03:28.253Z,8.50
2017-08-24T10:05:55.946Z,8.03
2017-08-24T10:08:23.415Z,8.53
2017-08-24T10:10:50.888Z,6.60
2017-08-24T10:13:18.333Z,5.37
2017-08-24T10:15:45.797Z,6.40
2017-08-24T10:18:13.274Z,6.07
2017-08-24T10:20:40.744Z,5.67
2017-08-24T10:23:08.213Z,5.83
2017-08-24T10:25:35.665Z,5.07
2017-08-24T10:28:03.104Z,5.93
2017-08-24T10:30:30.581Z,6.30
2017-08-24T10:32:58.029Z,6.20
2017-08-24T10:35:25.492Z,6.80
2017-08-24T10:37:52.929Z,5.33
2017-08-24T10:40:20.377Z,5.90
2017-08-24T10:42:47.841Z,6.73
2017-08-24T10:45:15.291Z,5.57
2017-08-24T10:47:42.878Z,6.67
2017-08-24T10:50:10.354Z,5.97
2017-08-24T10:52:37.813Z,5.97
2017-08-24T10:55:05.257Z,5.70
2017-08-24T10:57:32.736Z,5.80
2017-08-24T11:00:00.177Z,4.13
2017-08-24T11:02:27.633Z,4.63
2017-08-24T11:04:55.101Z,4.77
2017-08-24T11:07:22.550Z,5.13
2017-08-24T11:09:50.016Z,4.30
2017-08-24T11:12:17.465Z,4.80
2017-08-24T11:14:44.911Z,4.90
2017-08-24T11:17:12.377Z,4.67
2017-08-24T11:19:39.859Z,5.83
2017-08-24T11:22:07.334Z,4.70
2017-08-24T11:24:34.779Z,5.53
2017-08-24T11:27:02.230Z,4.27
2017-08-24T11:29:30.273Z,4.93
2017-08-24T11:31:57.745Z,4.63
2017-08-24T11:34:25.185Z,3.90
2017-08-24T11:36:52.640Z,4.50
2017-08-24T11:39:20.109Z,4.67
2017-08-24T11:41:47.555Z,4.90
2017-08-24T11:44:15.030Z,4.37
2017-08-24T11:46:42.477Z,3.90
2017-08-24T11:49:09.945Z,4.80
2017-08-24T11:51:37.400Z,5.10
2017-08-24T11:54:05.179Z,5.67
2017-08-24T11:56:32.621Z,4.13
2017-08-24T11:59:00.103Z,6.77
2017-08-24T12:01:27.557Z,3.87
2017-08-24T12:03:55.041Z,4.10
2017-08-24T12:06:22.518Z,3.60
2017-08-24T12:08:49.956Z,3.50
2017-08-24T12:11:17.410Z,4.27
2017-08-24T12:13:44.884Z,3.33
2017-08-24T12:16:12.333Z,3.50
2017-08-24T12:18:39.798Z,3.73
2017-08-24T12:21:07.251Z,4.20
2017-08-24T12:23:34.716Z,4.20
2017-08-24T12:26:02.157Z,3.80
2017-08-24T12:28:29.634Z,3.47
2017-08-24T12:30:57.102Z,3.57
2017-08-24T12:33:24.556Z,3.60
2017-08-24T12:35:52.021Z,4.60
2017-08-24T12:38:19.465Z,4.07
2017-08-24T12:40:46.933Z,2.93
2017-08-24T12:43:14.385Z,3.63
2017-08-24T12:45:41.849Z,3.27
2017-08-24T12:48:09.305Z,3.77
2017-08-24T12:50:36.774Z,3.30
2017-08-24T12:53:04.220Z,3.43
2017-08-24T12:55:31.673Z,3.27
2017-08-24T12:57:59.138Z,3.57
2017-08-24T13:00:26.609Z,2.63
2017-08-24T13:02:54.061Z,3.67
2017-08-24T13:05:21.539Z,3.17
2017-08-24T13:07:49.012Z,3.20
2017-08-24T13:10:16.458Z,3.33
2017-08-24T13:12:43.906Z,4.07
2017-08-24T13:15:11.374Z,3.67
2017-08-24T13:17:38.822Z,2.93
2017-08-24T13:20:06.309Z,3.20
2017-08-24T13:22:33.789Z,4.30
2017-08-24T13:25:01.234Z,3.60
2017-08-24T13:27:28.680Z,3.73
2017-08-24T13:29:56.165Z,3.10
2017-08-24T13:32:23.633Z,4.07
2017-08-24T13:34:51.081Z,4.47
2017-08-24T13:37:18.549Z,4.47
2017-08-24T13:39:45.996Z,3.90
2017-08-24T13:42:13.465Z,4.17
2017-08-24T13:44:40.912Z,4.33
2017-08-24T13:47:08.361Z,3.87
2017-08-24T13:49:35.830Z,4.03
2017-08-24T13:52:03.281Z,3.67
2017-08-24T13:54:30.747Z,3.60
2017-08-24T13:56:58.194Z,4.30
2017-08-24T13:59:25.668Z,3.63
2017-08-24T14:01:53.116Z,3.40
2017-08-24T14:04:20.555Z,3.40
2017-08-24T14:06:48.026Z,3.50
2017-08-24T14:09:15.473Z,4.10
2017-08-24T14:11:42.950Z,4.03
2017-08-24T14:14:10.414Z,3.90
2017-08-24T14:16:37.874Z,3.60
2017-08-24T14:19:05.330Z,3.80
2017-08-24T14:21:32.792Z,3.57
2017-08-24T14:24:00.241Z,4.10
2017-08-24T14:26:27.716Z,2.57
2017-08-24T14:28:55.161Z,3.93
2017-08-24T14:31:22.625Z,3.37
2017-08-24T14:33:50.074Z,3.93
2017-08-24T14:36:17.548Z,3.60
2017-08-24T14:38:44.986Z,4.30
2017-08-24T14:41:12.458Z,3.60
2017-08-24T14:43:39.933Z,4.00
2017-08-24T14:46:07.373Z,3.87
2017-08-24T14:48:34.849Z,3.67
2017-08-24T14:51:02.295Z,3.57
2017-08-24T14:53:29.757Z,4.30
2017-08-24T14:55:57.228Z,3.63
2017-08-24T14:58:24.689Z,4.00
2017-08-24T15:00:52.226Z,3.80
2017-08-24T15:03:19.686Z,4.20
2017-08-24T15:05:47.125Z,4.00
2017-08-24T15:08:14.602Z,4.43
2017-08-24T15:10:42.043Z,3.30
2017-08-24T15:13:09.525Z,4.00
2017-08-24T15:15:36.978Z,3.97
2017-08-24T15:18:04.426Z,4.60
2017-08-24T15:20:31.903Z,4.10
2017-08-24T15:22:59.361Z,4.50
2017-08-24T15:25:26.837Z,5.57
2017-08-24T15:27:54.432Z,4.20
2017-08-24T15:30:21.882Z,3.63
2017-08-24T15:32:49.333Z,4.27
2017-08-24T15:35:16.917Z,3.47
2017-08-24T15:37:44.365Z,3.70
2017-08-24T15:40:11.809Z,3.50
2017-08-24T15:42:39.281Z,3.53
2017-08-24T15:45:06.742Z,4.53
2017-08-24T15:47:34.205Z,3.37
2017-08-24T15:50:01.693Z,4.30
2017-08-24T15:52:29.169Z,3.90
2017-08-24T15:54:56.620Z,4.70
2017-08-24T15:57:25.784Z,4.17
2017-08-24T15:59:53.256Z,3.67
2017-08-24T16:02:20.705Z,4.17
2017-08-24T16:04:48.170Z,3.63
2017-08-24T16:07:15.616Z,4.67
2017-08-24T16:09:43.401Z,3.80
2017-08-24T16:12:10.850Z,3.70
2017-08-24T16:14:38.297Z,5.63
2017-08-24T16:17:05.765Z,4.20
2017-08-24T16:19:33.227Z,4.23
2017-08-24T16:22:00.685Z,3.90
2017-08-24T16:24:28.128Z,4.00
2017-08-24T16:26:55.578Z,4.00
2017-08-24T16:29:23.057Z,4.43
2017-08-24T16:31:50.841Z,4.00
2017-08-24T16:34:18.281Z,4.00
2017-08-24T16:36:45.740Z,4.70
2017-08-24T16:39:13.207Z,5.00
2017-08-24T16:41:40.673Z,4.60
2017-08-24T16:44:08.112Z,4.30
2017-08-24T16:46:35.581Z,4.47
2017-08-24T16:49:03.042Z,5.17
2017-08-24T16:51:30.508Z,4.73
2017-08-24T16:53:57.949Z,4.87
2017-08-24T16:56:25.396Z,4.63
2017-08-24T16:58:52.878Z,4.70
2017-08-24T17:01:20.319Z,4.80
2017-08-24T17:03:47.789Z,4.90
2017-08-24T17:06:15.240Z,5.17
2017-08-24T17:08:42.686Z,4.80
2017-08-24T17:11:10.154Z,4.30
2017-08-24T17:13:37.608Z,5.67
2017-08-24T17:16:05.078Z,4.70
2017-08-24T17:18:32.644Z,6.47
2017-08-24T17:21:00.102Z,5.83
2017-08-24T17:23:27.549Z,6.10
2017-08-24T17:25:55.021Z,8.00
2017-08-24T17:28:22.480Z,5.77
2017-08-24T17:30:50.562Z,6.27
2017-08-24T17:33:18.898Z,6.77
2017-08-24T17:35:46.349Z,7.20
2017-08-24T17:38:13.812Z,6.17
2017-08-24T17:40:41.261Z,7.40
2017-08-24T17:43:08.711Z,6.77
2017-08-24T17:45:36.188Z,8.27
2017-08-24T17:48:03.642Z,11.27
2017-08-24T17:50:31.113Z,10.17
2017-08-24T17:52:58.586Z,9.87
2017-08-24T17:55:26.033Z,9.00
2017-08-24T17:57:53.501Z,7.27
2017-08-24T18:00:20.946Z,7.57
2017-08-24T18:02:48.403Z,9.70
2017-08-24T18:05:15.881Z,13.37
2017-08-24T18:07:43.357Z,12.60
2017-08-24T18:10:10.805Z,11.33
2017-08-24T18:12:38.266Z,11.33
2017-08-24T18:15:05.737Z,12.17
2017-08-24T18:17:33.216Z,13.43
2017-08-24T18:20:00.676Z,13.60
2017-08-24T18:22:28.139Z,16.53
2017-08-24T18:24:55.608Z,34.43
2017-08-24T18:27:23.065Z,14.37
2017-08-24T18:29:50.541Z,14.10
2017-08-24T18:32:18.004Z,10.03
2017-08-24T18:34:45.461Z,15.00
2017-08-24T18:37:12.954Z,13.00
2017-08-24T18:39:40.401Z,9.27
2017-08-24T18:42:07.854Z,10.70
2017-08-24T18:44:35.328Z,11.10
2017-08-24T18:47:02.805Z,11.37
2017-08-24T18:49:30.257Z,10.53
2017-08-24T18:51:57.926Z,10.97
2017-08-24T18:54:25.435Z,10.83
2017-08-24T18:56:52.919Z,10.33
2017-08-24T18:59:20.384Z,11.50
2017-08-24T19:01:47.866Z,12.50
2017-08-24T19:04:15.349Z,14.13
2017-08-24T19:06:42.811Z,15.17
2017-08-24T19:09:11.726Z,12.43
2017-08-24T19:11:40.250Z,13.53
2017-08-24T19:14:08.949Z,13.90
2017-08-24T19:16:36.863Z,12.40
2017-08-24T19:19:04.630Z,12.53
2017-08-24T19:21:32.381Z,10.77
2017-08-24T19:24:00.364Z,11.87
2017-08-24T19:26:29.076Z,14.70
2017-08-24T19:28:56.535Z,14.60
2017-08-24T19:31:23.991Z,10.53
2017-08-24T19:33:51.986Z,11.47
2017-08-24T19:36:20.492Z,11.80
2017-08-24T19:38:48.927Z,33.37
2017-08-24T19:41:16.478Z,34.60
2017-08-24T19:43:43.935Z,16.37
2017-08-24T19:46:11.394Z,13.40
2017-08-24T19:48:40.325Z,10.87
2017-08-24T19:51:07.926Z,11.70
2017-08-24T19:53:35.393Z,11.70
2017-08-24T19:56:02.844Z,22.70
2017-08-24T19:58:31.531Z,22.03
2017-08-24T20:00:59.132Z,23.00
2017-08-24T20:03:26.884Z,13.93
2017-08-24T20:05:54.337Z,11.83
2017-08-24T20:08:22.593Z,11.23
2017-08-24T20:10:51.122Z,11.60
2017-08-24T20:13:18.710Z,9.17
2017-08-24T20:15:46.173Z,11.27
2017-08-24T20:18:13.621Z,12.40
2017-08-24T20:20:42.752Z,10.43
2017-08-24T20:23:10.437Z,10.53
2017-08-24T20:25:38.299Z,10.90
2017-08-24T20:28:05.780Z,12.93
2017-08-24T20:30:33.233Z,12.77
2017-08-24T20:33:00.719Z,12.47
2017-08-24T20:35:29.036Z,11.27
2017-08-24T20:37:56.585Z,11.80
2017-08-24T20:40:24.053Z,12.70
2017-08-24T20:42:52.061Z,12.80
2017-08-24T20:45:19.541Z,12.40
2017-08-24T20:47:47.002Z,11.73
2017-08-24T20:50:14.484Z,12.40
2017-08-24T20:52:41.942Z,10.60
2017-08-24T20:55:09.432Z,10.93
2017-08-24T20:57:36.892Z,11.93
2017-08-24T21:00:04.565Z,12.43
2017-08-24T21:02:32.020Z,13.07
2017-08-24T21:04:59.478Z,11.67
2017-08-24T21:07:26.948Z,12.90
2017-08-24T21:09:54.401Z,12.93
2017-08-24T21:12:21.867Z,12.43
2017-08-24T21:14:49.338Z,12.47
2017-08-24T21:17:16.812Z,12.47
2017-08-24T21:19:44.294Z,11.83
2017-08-24T21:22:11.746Z,11.30
2017-08-24T21:24:39.229Z,11.97
2017-08-24T21:27:06.677Z,10.03
2017-08-24T21:29:34.150Z,9.70
2017-08-24T21:32:01.627Z,9.23
2017-08-24T21:34:29.073Z,10.50
2017-08-24T21:36:56.773Z,12.37
2017-08-24T21:39:24.226Z,12.47
2017-08-24T21:41:51.673Z,13.20
2017-08-24T21:44:19.161Z,11.77
2017-08-24T21:46:46.617Z,12.37
2017-08-24T21:49:14.127Z,12.00
2017-08-24T21:51:41.581Z,9.73
2017-08-24T21:54:09.044Z,8.50
2017-08-24T21:56:36.515Z,5.70
2017-08-24T21:59:03.968Z,4.70
2017-08-24T22:01:31.413Z,3.20
2017-08-24T22:03:58.889Z,3.63
2017-08-24T22:06:26.339Z,2.90
2017-08-24T22:08:53.785Z,2.40
2017-08-24T22:11:21.264Z,2.40
2017-08-24T22:13:48.711Z,1.60
2017-08-24T22:16:16.166Z,1.30
2017-08-24T22:18:43.632Z,1.40
2017-08-24T22:21:11.093Z,1.70
2017-08-24T22:23:38.564Z,1.50
2017-08-24T22:26:06.010Z,1.33
2017-08-24T22:28:33.488Z,1.23
2017-08-24T22:31:00.958Z,1.60
2017-08-24T22:33:28.661Z,1.30
2017-08-24T22:35:56.109Z,1.00
2017-08-24T22:38:23.559Z,1.20
2017-08-24T22:40:51.049Z,1.20
2017-08-24T22:43:18.509Z,1.50
2017-08-24T22:45:45.966Z,1.33
2017-08-24T22:48:13.433Z,1.40
2017-08-24T22:50:40.872Z,1.10
2017-08-24T22:56:14.763Z,1.10
2017-08-24T22:58:47.765Z,1.43
2017-08-24T23:04:18.045Z,1.20
2017-08-24T23:06:45.490Z,1.37
2017-08-24T23:09:12.956Z,1.30
2017-08-24T23:11:40.400Z,1.40
2017-08-24T23:14:07.874Z,1.10
2017-08-24T23:16:35.325Z,1.20
2017-08-24T23:19:02.825Z,1.20
2017-08-24T23:21:30.285Z,1.13
2017-08-24T23:23:57.730Z,1.50
2017-08-24T23:26:25.209Z,1.63
2017-08-24T23:28:52.657Z,1.50
2017-08-24T23:31:20.101Z,1.17
2017-08-24T23:33:47.583Z,1.40
2017-08-24T23:36:15.045Z,1.20
2017-08-24T23:38:42.525Z,1.77
2017-08-24T23:41:09.972Z,1.73
2017-08-24T23:43:37.714Z,1.73
2017-08-24T23:46:05.164Z,1.47
2017-08-24T23:48:32.623Z,1.60
2017-08-24T23:51:00.102Z,1.70
2017-08-24T23:53:27.544Z,2.33
2017-08-24T23:55:55.007Z,1.53
2017-08-24T23:58:22.465Z,1.27
